Time;durP1;ratioP1;P1;durP2;ratioP2;P2;SDS_P1;SDS_P2;PMS_P1;PMS_P2;Temp;Humidity;BMP_temperature;BMP_pressure;BME280_temperature;BME280_humidity;BME280_pressure;Samples;Min_cycle;Max_cycle;Signal;HPM_P1;HPM_P2
2023/01/15 00:01:58;;;;;;;49.75;15.48;;;17.20;99.90;;;;;;5058174;28;20442;-66
2023/01/15 00:04:24;;;;;;;48.92;14.85;;;;;;;;;;5057504;28;20025;-66
2023/01/15 00:06:53;;;;;;;69.40;26.45;;;;;;;;;;5034661;28;20442;-65
2023/01/15 00:09:19;;;;;;;58.33;14.77;;;;;;;;;;5027941;28;20051;-66
2023/01/15 00:11:46;;;;;;;61.50;15.90;;;;;;;;;;5045139;28;20029;-67
2023/01/15 00:14:12;;;;;;;66.75;15.90;;;;;;;;;;5033438;28;20491;-66
2023/01/15 00:16:39;;;;;;;50.28;15.23;;;17.20;64.40;;;;;;5064453;28;20034;-65
2023/01/15 00:19:09;;;;;;;59.83;15.55;;;17.80;99.90;;;;;;5042323;28;20473;-65
2023/01/15 00:21:35;;;;;;;54.75;15.57;;;17.30;99.90;;;;;;5048237;28;20032;-65
2023/01/15 00:29:33;;;;;;;49.67;17.15;;;17.50;99.90;;;;;;5055254;28;20079;-64
2023/01/15 00:32:05;;;;;;;73.65;18.35;;;17.00;65.30;;;;;;5075543;28;20166;-65
2023/01/15 00:34:33;;;;;;;53.95;15.65;;;17.00;66.30;;;;;;5031758;28;20029;-66
2023/01/15 00:36:59;;;;;;;48.35;15.07;;;;;;;;;;5053579;28;20109;-63
2023/01/15 00:39:26;;;;;;;51.65;16.35;;;;;;;;;;5040152;28;20485;-65
2023/01/15 00:41:53;;;;;;;59.33;15.52;;;;;;;;;;5046945;28;20020;-64
2023/01/15 00:44:20;;;;;;;64.13;16.23;;;17.60;92.50;;;;;;5069314;28;20020;-65
2023/01/15 00:46:47;;;;;;;63.08;16.40;;;16.90;75.50;;;;;;5040687;28;20143;-65
2023/01/15 00:49:14;;;;;;;52.97;15.73;;;16.90;78.20;;;;;;5036776;28;20020;-65
2023/01/15 00:51:40;;;;;;;68.75;17.27;;;16.90;67.30;;;;;;5039849;28;20180;-66
2023/01/15 00:54:06;;;;;;;63.05;18.55;;;16.80;67.20;;;;;;5013662;28;20572;-64
2023/01/15 00:56:33;;;;;;;55.38;18.92;;;16.80;67.70;;;;;;5031323;28;20080;-65
2023/01/15 00:59:02;;;;;;;69.90;19.70;;;16.90;90.40;;;;;;5047753;28;20086;-64
2023/01/15 01:01:28;;;;;;;66.40;18.48;;;16.90;98.20;;;;;;5036054;28;20114;-64
2023/01/15 01:03:55;;;;;;;70.82;19.63;;;17.20;70.80;;;;;;5036354;28;20067;-66
2023/01/15 01:06:21;;;;;;;65.85;18.35;;;17.20;98.20;;;;;;5051692;28;20082;-65
2023/01/15 01:08:48;;;;;;;47.65;18.08;;;;;;;;;;5043764;28;20101;-66
2023/01/15 01:11:17;;;;;;;72.13;18.65;;;15.50;67.40;;;;;;5034574;28;20029;-65
2023/01/15 01:13:44;;;;;;;81.20;18.63;;;16.40;95.20;;;;;;5055770;28;20036;-65
2023/01/15 01:16:34;;;;;;;58.30;17.33;;;16.70;69.20;;;;;;5031153;28;20059;-66
2023/01/15 01:19:13;;;;;;;54.75;16.92;;;17.20;96.50;;;;;;5045304;28;20047;-67
2023/01/15 01:21:41;;;;;;;67.95;18.40;;;17.20;97.00;;;;;;5067692;28;20474;-66
2023/01/15 01:24:10;;;;;;;70.72;18.52;;;16.90;70.70;;;;;;5052833;28;20430;-66
2023/01/15 01:26:38;;;;;;;66.40;19.98;;;16.70;70.00;;;;;;5026018;28;20081;-65
2023/01/15 01:29:04;;;;;;;64.38;20.17;;;16.70;69.90;;;;;;5039407;28;20128;-65
2023/01/15 01:31:31;;;;;;;84.50;21.00;;;16.60;70.60;;;;;;5038467;28;20054;-69
2023/01/15 01:33:58;;;;;;;52.80;19.48;;;16.60;70.10;;;;;;5040870;28;20137;-67
2023/01/15 01:36:30;;;;;;;64.65;21.58;;;16.60;70.40;;;;;;5058772;28;20432;-65
2023/01/15 01:38:57;;;;;;;78.65;22.45;;;16.60;71.00;;;;;;5047319;28;20077;-66
2023/01/15 01:41:25;;;;;;;69.05;20.77;;;16.50;71.10;;;;;;5052522;28;20079;-68
2023/01/15 01:44:16;;;;;;;69.18;20.52;;;16.40;92.10;;;;;;5053122;28;20141;-68
2023/01/15 01:46:43;;;;;;;72.07;21.38;;;16.60;96.00;;;;;;5053278;28;20075;-66
2023/01/15 01:49:12;;;;;;;75.00;25.17;;;16.90;96.90;;;;;;5041630;28;20060;-67
2023/01/15 01:51:43;;;;;;;57.65;21.02;;;17.00;78.40;;;;;;5054547;28;20446;-65
2023/01/15 01:54:12;;;;;;;67.80;21.15;;;16.60;93.20;;;;;;5039036;28;20067;-68
2023/01/15 01:56:38;;;;;;;72.90;20.15;;;16.50;72.60;;;;;;5030766;28;20098;-66
2023/01/15 01:59:06;;;;;;;70.47;24.05;;;16.90;98.90;;;;;;5033956;28;20067;-66
2023/01/15 02:01:33;;;;;;;77.85;23.77;;;16.90;92.60;;;;;;5046242;28;20515;-67
2023/01/15 02:03:59;;;;;;;69.65;25.05;;;15.80;92.40;;;;;;5029648;28;20485;-65
2023/01/15 02:06:28;;;;;;;75.10;24.35;;;16.10;93.00;;;;;;5044234;28;20079;-66
2023/01/15 02:08:54;;;;;;;72.13;24.98;;;16.50;74.70;;;;;;5034109;28;20107;-67
2023/01/15 02:11:22;;;;;;;79.72;25.38;;;16.40;74.70;;;;;;5046003;28;20156;-66
2023/01/15 02:14:15;;;;;;;71.07;26.73;;;16.10;98.20;;;;;;5047506;28;20066;-66
2023/01/15 02:17:06;;;;;;;75.72;26.25;;;16.00;90.60;;;;;;5062614;28;20132;-67
2023/01/15 02:19:58;;;;;;;84.95;29.90;;;16.40;74.80;;;;;;5054036;28;20050;-66
2023/01/15 02:22:36;;;;;;;77.45;25.33;;;16.40;75.10;;;;;;5053142;28;20050;-66
2023/01/15 02:25:30;;;;;;;71.50;26.08;;;16.30;75.70;;;;;;5042365;28;20022;-66
2023/01/15 02:28:27;;;;;;;72.35;24.20;;;16.30;76.30;;;;;;5043717;28;20050;-64
2023/01/15 02:30:59;;;;;;;73.88;24.05;;;;;;;;;;5019040;28;20058;-67
2023/01/15 02:33:34;;;;;;;70.22;24.90;;;16.30;77.70;;;;;;5052347;28;20023;-67
2023/01/15 02:36:00;;;;;;;80.20;24.63;;;16.70;90.30;;;;;;5035368;28;20068;-67
2023/01/15 02:38:35;;;;;;;70.07;25.73;;;15.90;98.30;;;;;;5060132;28;20095;-71
2023/01/15 02:41:04;;;;;;;61.25;22.90;;;16.20;78.50;;;;;;5029389;28;20066;-68
2023/01/15 02:43:35;;;;;;;81.28;23.63;;;15.90;87.20;;;;;;5041015;28;20046;-68
2023/01/15 02:46:04;;;;;;;61.28;23.77;;;17.30;78.80;;;;;;5047806;28;20045;-70
2023/01/15 02:48:35;;;;;;;63.72;23.85;;;16.20;78.30;;;;;;5043538;28;20059;-68
2023/01/15 02:51:13;;;;;;;72.82;24.17;;;16.10;96.10;;;;;;5031437;28;20055;-67
2023/01/15 02:53:43;;;;;;;80.10;22.58;;;16.50;91.20;;;;;;5032806;28;20072;-65
2023/01/15 02:56:16;;;;;;;74.32;23.00;;;16.00;78.60;;;;;;5042046;28;20137;-65
2023/01/15 02:58:44;;;;;;;73.32;21.02;;;16.20;98.50;;;;;;5032395;28;20042;-64
2023/01/15 03:01:21;;;;;;;82.20;20.80;;;16.20;96.20;;;;;;5053763;28;20423;-65
2023/01/15 03:03:53;;;;;;;70.50;23.05;;;16.10;79.60;;;;;;5044371;28;20076;-68
2023/01/15 03:06:36;;;;;;;63.40;21.20;;;16.60;96.90;;;;;;5051415;28;20058;-70
2023/01/15 03:09:03;;;;;;;55.50;19.83;;;15.80;95.60;;;;;;5079229;28;20175;-69
2023/01/15 03:11:36;;;;;;;56.33;22.05;;;16.00;99.90;;;;;;5079734;28;20086;-70
2023/01/15 03:14:06;;;;;;;57.00;22.05;;;16.00;99.90;;;;;;5083916;28;20057;-69
2023/01/15 03:16:36;;;;;;;64.90;23.75;;;16.00;81.60;;;;;;5082759;28;20091;-70
2023/01/15 03:19:10;;;;;;;67.93;23.90;;;16.10;81.90;;;;;;5084047;28;20395;-69
2023/01/15 03:21:47;;;;;;;76.50;27.48;;;16.20;99.90;;;;;;5087977;28;20061;-69
2023/01/15 03:24:20;;;;;;;91.38;41.03;;;16.00;82.90;;;;;;5083306;28;20505;-68
2023/01/15 03:26:47;;;;;;;80.53;37.90;;;16.10;99.90;;;;;;5056944;28;20102;-69
2023/01/15 03:29:14;;;;;;;71.47;28.00;;;16.20;99.70;;;;;;5038984;28;20055;-69
2023/01/15 03:31:43;;;;;;;67.07;21.92;;;16.40;83.40;;;;;;5082842;28;20141;-68
2023/01/15 03:34:10;;;;;;;55.67;20.85;;;16.40;99.90;;;;;;5061220;28;20088;-69
2023/01/15 03:36:37;;;;;;;68.32;22.67;;;15.70;99.90;;;;;;5054321;28;20075;-69
2023/01/15 03:39:05;;;;;;;73.63;25.08;;;15.90;99.90;;;;;;5043473;28;20052;-69
2023/01/15 03:41:39;;;;;;;56.40;23.55;;;15.70;99.90;;;;;;5035364;28;20161;-70
2023/01/15 03:44:39;;;;;;;54.40;23.27;;;15.80;85.50;;;;;;5047888;28;20421;-69
2023/01/15 03:47:33;;;;;;;64.40;22.17;;;15.80;86.30;;;;;;5053261;28;20012;-68
2023/01/15 03:50:24;;;;;;;66.13;21.40;;;15.70;96.90;;;;;;5022835;28;20080;-69
2023/01/15 03:53:17;;;;;;;63.10;18.40;;;15.90;94.70;;;;;;5037733;28;20020;-68
2023/01/15 03:55:46;;;;;;;47.05;17.73;;;15.80;94.60;;;;;;5049397;28;20441;-68
2023/01/15 03:58:33;;;;;;;47.92;17.38;;;15.70;90.00;;;;;;5032453;28;20070;-68
2023/01/15 04:01:02;;;;;;;50.97;19.80;;;15.70;90.70;;;;;;5036731;28;20099;-69
2023/01/15 04:03:31;;;;;;;50.13;19.63;;;15.70;99.90;;;;;;5032014;28;20066;-69
2023/01/15 04:06:00;;;;;;;61.28;19.85;;;15.80;94.60;;;;;;5048794;28;20131;-70
2023/01/15 04:08:32;;;;;;;65.22;21.40;;;15.60;90.70;;;;;;5056078;28;20032;-70
2023/01/15 04:11:01;;;;;;;73.22;24.15;;;15.60;90.80;;;;;;5051824;28;20455;-71
2023/01/15 04:13:28;;;;;;;58.78;21.75;;;15.60;91.10;;;;;;5034502;28;20084;-68
2023/01/15 04:15:56;;;;;;;66.90;21.30;;;15.50;91.40;;;;;;5050218;28;20073;-69
2023/01/15 04:18:22;;;;;;;61.33;22.17;;;15.50;91.70;;;;;;5043768;28;20492;-70
2023/01/15 04:20:49;;;;;;;50.00;17.85;;;15.40;91.90;;;;;;5029242;28;20111;-70
2023/01/15 04:23:15;;;;;;;;;;;15.30;92.40;;;;;;5050543;28;20427;-68
2023/01/15 04:25:41;;;;;;;41.78;14.98;;;15.20;93.00;;;;;;5051413;28;19955;-69
2023/01/15 04:28:08;;;;;;;32.88;12.25;;;15.20;93.30;;;;;;5052894;28;20063;-69
2023/01/15 04:30:36;;;;;;;39.70;12.98;;;15.20;93.40;;;;;;5034672;28;20067;-69
2023/01/15 04:33:03;;;;;;;41.53;14.48;;;15.20;93.60;;;;;;5040237;28;20501;-68
2023/01/15 04:35:29;;;;;;;31.08;13.98;;;15.20;93.60;;;;;;5064838;28;20577;-69
2023/01/15 04:37:59;;;;;;;35.75;14.50;;;15.20;93.80;;;;;;5046342;28;20067;-68
2023/01/15 04:45:57;;;;;;;30.08;14.43;;;14.90;94.70;;;;;;5046412;28;20104;-70
2023/01/15 04:48:24;;;;;;;36.22;14.05;;;14.70;95.60;;;;;;5041080;28;20141;-63
2023/01/15 04:50:51;;;;;;;31.08;14.60;;;14.90;95.40;;;;;;5068017;28;20181;-69
2023/01/15 04:53:17;;;;;;;31.42;13.82;;;14.90;95.50;;;;;;5060436;28;20063;-68
2023/01/15 04:55:43;;;;;;;;;;;14.90;95.70;;;;;;5043779;28;20156;-68
2023/01/15 04:58:10;;;;;;;34.80;13.60;;;15.00;97.00;;;;;;5061656;28;20057;-65
2023/01/15 05:00:36;;;;;;;;;;;14.90;96.10;;;;;;5055895;28;20431;-68
2023/01/15 05:03:02;;;;;;;33.95;13.95;;;15.10;99.90;;;;;;5050244;28;20468;-68
2023/01/15 05:05:31;;;;;;;;;;;14.90;96.30;;;;;;5046723;28;20109;-69
2023/01/15 05:07:57;;;;;;;32.00;14.80;;;14.70;99.90;;;;;;5042659;28;20321;-68
2023/01/15 05:10:23;;;;;;;;;;;14.70;96.60;;;;;;5073779;28;20046;-69
2023/01/15 05:12:50;;;;;;;34.67;13.52;;;14.80;99.90;;;;;;5052745;28;20012;-70
2023/01/15 05:15:16;;;;;;;;;;;14.70;96.80;;;;;;5047964;28;20047;-68
2023/01/15 05:17:42;;;;;;;37.78;15.00;;;;;;;;;;5059188;28;19930;-68
2023/01/15 05:20:09;;;;;;;40.53;14.30;;;14.70;96.30;;;;;;5056130;28;20075;-67
2023/01/15 05:22:36;;;;;;;33.13;14.63;;;;;;;;;;5063463;28;20481;-69
2023/01/15 05:25:02;;;;;;;34.58;13.52;;;;;;;;;;5048036;28;20494;-68
2023/01/15 05:27:30;;;;;;;37.30;15.68;;;14.70;96.10;;;;;;5055179;28;20073;-69
2023/01/15 05:29:56;;;;;;;46.03;17.10;;;14.70;99.90;;;;;;5042615;28;20057;-67
2023/01/15 05:32:22;;;;;;;;;;;14.70;96.20;;;;;;5074250;28;20492;-67
2023/01/15 05:34:49;;;;;;;35.08;15.50;;;;;;;;;;5056409;28;19947;-67
2023/01/15 05:37:15;;;;;;;35.97;15.07;;;;;;;;;;5058624;28;20041;-68
2023/01/15 05:39:42;;;;;;;40.28;13.65;;;;;;;;;;5055891;28;20515;-69
2023/01/15 05:42:08;;;;;;;40.58;13.15;;;;;;;;;;5055050;28;20028;-69
2023/01/15 05:44:35;;;;;;;36.75;13.18;;;;;;;;;;5056640;28;20018;-67
2023/01/15 05:47:04;;;;;;;40.55;11.85;;;14.80;99.50;;;;;;5045169;28;20067;-69
2023/01/15 05:49:58;;;;;;;51.17;13.25;;;14.80;96.20;;;;;;5113524;27;20429;-69
2023/01/15 05:52:24;;;;;;;31.20;10.88;;;;;;;;;;5118816;28;20026;-69
2023/01/15 05:54:51;;;;;;;27.98;11.23;;;;;;;;;;5118783;28;20089;-68
2023/01/15 05:57:17;;;;;;;26.42;10.75;;;;;;;;;;5117904;28;20019;-68
2023/01/15 05:59:44;;;;;;;39.70;9.90;;;;;;;;;;5116718;28;20069;-68
2023/01/15 06:02:10;;;;;;;29.20;8.82;;;;;;;;;;5112220;28;20064;-65
2023/01/15 06:04:37;;;;;;;15.07;8.30;;;14.80;91.90;;;;;;5117198;27;20059;-67
2023/01/15 06:07:03;;;;;;;26.92;8.82;;;;;;;;;;5113589;28;20028;-69
2023/01/15 06:09:30;;;;;;;22.08;8.73;;;14.70;91.60;;;;;;5122578;28;20027;-67
2023/01/15 06:11:56;;;;;;;;;;;15.30;92.20;;;;;;5118095;27;20031;-67
2023/01/15 06:14:22;;;;;;;23.88;7.80;;;;;;;;;;5119742;27;20318;-71
2023/01/15 06:16:49;;;;;;;20.20;8.85;;;;;;;;;;5119656;28;20030;-67
2023/01/15 06:19:16;;;;;;;20.80;7.85;;;;;;;;;;5114718;28;20047;-67
2023/01/15 06:21:43;;;;;;;23.58;8.32;;;;;;;;;;5112231;28;20068;-70
2023/01/15 06:24:09;;;;;;;29.15;9.85;;;;;;;;;;5114243;28;20582;-67
2023/01/15 06:26:38;;;;;;;30.33;9.32;;;14.60;91.50;;;;;;5113999;28;20031;-67
2023/01/15 06:29:04;;;;;;;20.55;7.82;;;;;;;;;;5117431;28;20451;-66
2023/01/15 06:31:31;;;;;;;24.45;9.23;;;;;;;;;;5116784;28;20024;-66
2023/01/15 06:33:58;;;;;;;24.35;9.35;;;;;;;;;;5120808;28;20023;-67
2023/01/15 06:36:26;;;;;;;24.70;8.30;;;14.40;93.30;;;;;;5116977;28;20082;-66
2023/01/15 06:38:53;;;;;;;29.15;9.60;;;;;;;;;;5113437;28;20028;-67
2023/01/15 06:49:41;;;;;;;32.95;9.95;;;;;;;;;;5123902;28;20431;-68
2023/01/15 06:52:08;;;;;;;38.05;11.02;;;;;;;;;;5115124;27;20473;-67
2023/01/15 06:54:34;;;;;;;35.28;10.98;;;12.10;91.90;;;;;;5118946;28;20088;-70
2023/01/15 06:57:01;;;;;;;38.05;10.73;;;14.30;93.00;;;;;;5111163;28;20483;-69
2023/01/15 06:59:28;;;;;;;34.40;10.68;;;;;;;;;;5112307;28;20055;-68
2023/01/15 07:01:54;;;;;;;34.92;10.90;;;14.60;93.70;;;;;;5103180;28;20432;-69
2023/01/15 07:04:21;;;;;;;40.38;10.57;;;;;;;;;;5097126;28;20036;-66
2023/01/15 07:06:47;;;;;;;38.75;11.43;;;14.30;99.90;;;;;;5095105;28;20053;-67
2023/01/15 07:09:13;;;;;;;;;;;14.40;94.20;;;;;;5094512;28;20059;-67
2023/01/15 07:11:49;;;;;;;32.05;11.02;;;14.60;99.90;;;;;;5094335;28;19931;-67
2023/01/15 07:14:26;;;;;;;33.30;11.20;;;14.70;99.90;;;;;;5092946;28;20071;-68
2023/01/15 07:16:53;;;;;;;41.50;11.30;;;;;;;;;;5092503;28;20050;-68
2023/01/15 07:19:20;;;;;;;40.67;10.70;;;14.80;95.80;;;;;;5099875;28;20043;-68
2023/01/15 07:21:47;;;;;;;37.80;12.00;;;14.60;99.90;;;;;;5097725;28;20399;-67
2023/01/15 07:24:16;;;;;;;33.85;11.80;;;14.40;96.30;;;;;;5093171;28;20024;-70
2023/01/15 07:26:44;;;;;;;37.85;12.70;;;14.60;96.70;;;;;;5095562;28;20053;-70
2023/01/15 07:29:17;;;;;;;26.27;10.65;;;14.50;96.10;;;;;;5100441;28;20051;-67
2023/01/15 07:31:44;;;;;;;37.47;11.45;;;;;;;;;;5102898;28;20036;-68
2023/01/15 07:34:10;;;;;;;32.05;10.60;;;;;;;;;;5098042;28;20013;-68
2023/01/15 07:36:37;;;;;;;29.67;10.90;;;14.60;97.40;;;;;;5100426;28;20024;-68
2023/01/15 07:39:05;;;;;;;36.85;10.38;;;14.50;98.30;;;;;;5098400;28;20044;-67
2023/01/15 07:50:15;;;;;;;26.02;9.93;;;14.70;98.70;;;;;;5096158;28;20046;-68
2023/01/15 07:52:42;;;;;;;31.33;10.05;;;14.50;98.10;;;;;;5092312;28;20048;-69
2023/01/15 07:55:11;;;;;;;32.30;10.98;;;14.80;99.90;;;;;;5104194;28;20016;-69
2023/01/15 07:57:38;;;;;;;24.85;10.82;;;;;;;;;;5095845;28;20043;-69
2023/01/15 08:00:07;;;;;;;31.88;9.60;;;14.60;98.60;;;;;;5099649;28;20037;-69
2023/01/15 08:02:34;;;;;;;29.00;9.10;;;14.10;99.90;;;;;;5097442;28;20470;-69
2023/01/15 08:05:00;;;;;;;;;;;14.60;96.80;;;;;;5102973;28;20061;-68
2023/01/15 08:07:26;;;;;;;28.23;9.18;;;14.30;99.90;;;;;;5097711;28;19914;-69
2023/01/15 08:09:53;;;;;;;28.00;9.85;;;;;;;;;;5099066;28;20065;-68
2023/01/15 08:15:15;;;;;;;37.33;11.02;;;14.40;98.80;;;;;;5101135;28;20062;-69
2023/01/15 08:17:49;;;;;;;27.23;10.38;;;14.20;99.90;;;;;;5100151;28;20453;-70
2023/01/15 08:20:20;;;;;;;38.58;12.20;;;14.20;99.90;;;;;;5099569;28;20496;-66
2023/01/15 08:22:47;;;;;;;30.90;11.73;;;14.00;99.90;;;;;;5098937;28;20031;-68
2023/01/15 08:25:17;;;;;;;38.17;13.93;;;13.90;99.90;;;;;;5099005;28;20024;-67
2023/01/15 08:27:44;;;;;;;42.80;14.90;;;13.70;99.90;;;;;;5095533;28;20035;-67
2023/01/15 08:30:15;;;;;;;44.50;14.93;;;14.00;99.90;;;;;;5099763;28;20067;-66
2023/01/15 08:32:41;;;;;;;48.17;16.20;;;;;;;;;;5099052;28;20121;-66
2023/01/15 08:35:08;;;;;;;46.20;15.82;;;;;;;;;;5096044;28;20047;-67
2023/01/15 08:37:35;;;;;;;39.38;14.38;;;;;;;;;;5098458;28;20377;-66
2023/01/15 08:40:01;;;;;;;45.25;15.75;;;;;;;;;;5094089;28;20042;-67
2023/01/15 08:42:28;;;;;;;39.63;16.08;;;;;;;;;;5097230;28;20054;-66
2023/01/15 08:44:54;;;;;;;41.67;16.58;;;13.40;99.90;;;;;;5094231;28;20034;-67
2023/01/15 08:47:20;;;;;;;;;;;13.50;99.90;;;;;;5099409;28;20136;-67
2023/01/15 08:49:47;;;;;;;41.60;18.15;;;;;;;;;;5098097;28;20460;-67
2023/01/15 08:52:14;;;;;;;43.80;15.77;;;13.30;99.90;;;;;;5098445;28;20082;-67
2023/01/15 08:54:41;;;;;;;43.90;15.73;;;;;;;;;;5099321;28;20029;-67
2023/01/15 08:57:08;;;;;;;50.55;24.48;;;;;;;;;;5097458;28;20058;-67
2023/01/15 08:59:35;;;;;;;50.50;24.70;;;14.10;99.90;;;;;;5096008;28;20027;-68
2023/01/15 09:02:01;;;;;;;45.63;22.48;;;;;;;;;;5094061;28;20158;-68
2023/01/15 09:04:28;;;;;;;49.33;24.13;;;;;;;;;;5097687;28;20031;-66
2023/01/15 09:06:54;;;;;;;52.75;26.10;;;;;;;;;;5096531;28;20034;-68
2023/01/15 09:09:21;;;;;;;57.55;29.13;;;;;;;;;;5099200;28;20036;-67
2023/01/15 09:11:47;;;;;;;51.10;29.38;;;;;;;;;;5103503;28;20019;-67
2023/01/15 09:14:14;;;;;;;46.10;23.38;;;14.60;99.90;;;;;;5099503;28;20050;-67
2023/01/15 09:16:41;;;;;;;55.88;24.42;;;14.00;99.90;;;;;;5098383;28;20019;-67
2023/01/15 09:19:09;;;;;;;30.20;16.08;;;14.90;99.90;;;;;;5105684;28;20019;-67
2023/01/15 09:21:36;;;;;;;37.10;18.60;;;;;;;;;;5093204;28;20075;-66
2023/01/15 09:24:03;;;;;;;43.22;18.17;;;;;;;;;;5098405;28;20021;-67
2023/01/15 09:26:29;;;;;;;43.20;18.27;;;;;;;;;;5096180;28;20035;-68
2023/01/15 09:28:56;;;;;;;46.33;19.48;;;;;;;;;;5095892;28;20027;-66
2023/01/15 09:31:23;;;;;;;48.58;19.35;;;14.40;99.90;;;;;;5103959;28;20026;-68
2023/01/15 09:33:50;;;;;;;40.03;18.10;;;14.30;99.90;;;;;;5098132;28;20098;-68
2023/01/15 09:36:38;;;;;;;40.85;17.92;;;14.60;99.90;;;;;;5100263;28;20115;-70
2023/01/15 09:39:04;;;;;;;52.92;16.88;;;;;;;;;;5098169;28;20047;-68
2023/01/15 09:42:05;;;;;;;39.75;18.27;;;14.60;99.90;;;;;;5098001;28;20070;-67
2023/01/15 09:45:02;;;;;;;34.10;17.42;;;14.90;99.90;;;;;;5094447;28;20425;-67
2023/01/15 09:47:55;;;;;;;37.30;17.35;;;14.60;99.90;;;;;;5094168;28;20432;-68
2023/01/15 09:50:40;;;;;;;43.47;19.52;;;14.50;99.90;;;;;;5096220;28;20094;-67
2023/01/15 09:53:13;;;;;;;40.17;20.65;;;14.70;99.90;;;;;;5100437;28;20125;-67
2023/01/15 09:55:47;;;;;;;46.13;25.50;;;14.50;99.90;;;;;;5099613;28;20375;-66
2023/01/15 09:58:19;;;;;;;48.10;25.95;;;14.50;99.90;;;;;;5096571;28;20050;-66
2023/01/15 10:00:47;;;;;;;53.88;28.20;;;14.70;99.90;;;;;;5099045;28;20045;-67
2023/01/15 10:03:20;;;;;;;41.33;24.63;;;14.50;99.90;;;;;;5095816;28;20043;-67
2023/01/15 10:06:06;;;;;;;36.58;16.00;;;14.40;99.90;;;;;;5094226;28;20062;-68
2023/01/15 10:08:41;;;;;;;29.25;12.48;;;14.50;99.90;;;;;;5097298;28;20080;-66
2023/01/15 10:11:14;;;;;;;25.90;11.40;;;14.20;99.90;;;;;;5097684;28;20044;-67
2023/01/15 10:13:48;;;;;;;32.63;12.98;;;14.30;99.90;;;;;;5098007;28;20585;-67
2023/01/15 10:16:30;;;;;;;29.55;13.75;;;14.10;99.90;;;;;;5097261;28;20453;-67
2023/01/15 10:18:57;;;;;;;30.17;13.50;;;14.10;99.90;;;;;;5092522;28;20460;-66
2023/01/15 10:21:33;;;;;;;27.13;13.90;;;13.90;99.90;;;;;;5103229;28;20062;-68
2023/01/15 10:24:16;;;;;;;26.55;12.98;;;14.30;99.90;;;;;;5095959;28;20036;-66
2023/01/15 10:26:43;;;;;;;30.67;14.82;;;;;;;;;;5094071;28;20527;-68
2023/01/15 10:29:28;;;;;;;34.63;14.82;;;14.40;99.90;;;;;;5095193;28;20532;-67
2023/01/15 10:32:28;;;;;;;32.60;14.65;;;14.60;99.90;;;;;;5091495;28;20408;-67
2023/01/15 10:35:19;;;;;;;29.08;15.30;;;14.60;99.90;;;;;;5062976;28;20076;-67
2023/01/15 10:38:14;;;;;;;29.67;16.05;;;14.30;99.90;;;;;;5102401;28;20047;-68
2023/01/15 10:40:40;;;;;;;39.67;15.82;;;;;;;;;;5103724;28;20065;-67
2023/01/15 10:43:25;;;;;;;31.92;14.00;;;14.40;99.90;;;;;;5109468;28;20036;-68
2023/01/15 10:46:07;;;;;;;36.20;14.73;;;14.40;99.90;;;;;;5101479;28;20062;-68
2023/01/15 10:48:50;;;;;;;31.65;14.65;;;14.50;99.90;;;;;;5104116;28;20131;-65
2023/01/15 10:51:45;;;;;;;34.03;14.25;;;14.30;99.90;;;;;;5093881;28;20433;-68
2023/01/15 10:54:25;;;;;;;41.60;21.48;;;14.20;99.90;;;;;;5102864;28;20039;-69
2023/01/15 10:57:00;;;;;;;50.33;33.35;;;13.90;99.90;;;;;;5097669;28;21673;-68
2023/01/15 10:59:47;;;;;;;54.55;34.30;;;14.20;99.90;;;;;;5102845;28;20043;-68
2023/01/15 11:02:33;;;;;;;51.55;28.30;;;14.40;99.90;;;;;;5098597;28;20037;-68
2023/01/15 11:05:01;;;;;;;42.28;24.50;;;14.70;99.90;;;;;;5099203;28;20373;-68
2023/01/15 11:07:38;;;;;;;41.50;19.45;;;14.60;99.90;;;;;;5099317;28;20032;-67
2023/01/15 11:10:11;;;;;;;32.47;19.20;;;13.80;99.90;;;;;;5095160;28;20046;-67
2023/01/15 11:21:19;;;;;;;32.45;15.68;;;14.20;99.90;;;;;;5096467;28;20089;-68
2023/01/15 11:23:47;;;;;;;26.33;15.13;;;14.00;99.90;;;;;;5098409;28;20423;-67
2023/01/15 11:26:24;;;;;;;32.47;16.52;;;14.20;99.90;;;;;;5101368;28;20396;-67
2023/01/15 11:28:53;;;;;;;26.95;15.48;;;13.90;99.90;;;;;;5107185;28;20027;-67
2023/01/15 11:31:19;;;;;;;30.30;15.30;;;;;;;;;;5107971;28;20020;-68
2023/01/15 11:34:01;;;;;;;30.95;16.77;;;14.10;99.90;;;;;;5104214;28;20091;-68
2023/01/15 11:36:29;;;;;;;34.33;15.32;;;14.30;99.90;;;;;;5097055;28;20030;-68
2023/01/15 11:38:56;;;;;;;32.03;16.00;;;14.10;99.90;;;;;;5095791;28;20043;-68
2023/01/15 11:52:58;;;;;;;32.60;15.43;;;14.00;99.90;;;;;;5098131;28;20054;-67
2023/01/15 11:55:27;;;;;;;30.48;14.43;;;13.80;99.90;;;;;;5101770;28;20548;-69
2023/01/15 11:57:55;;;;;;;32.63;15.80;;;13.80;99.90;;;;;;5102688;28;20024;-67
2023/01/15 12:00:34;;;;;;;26.05;13.27;;;13.40;99.90;;;;;;5105423;28;20378;-68
2023/01/15 12:03:10;;;;;;;27.55;13.15;;;13.70;99.90;;;;;;5103142;28;20016;-68
2023/01/15 12:05:44;;;;;;;25.00;13.77;;;13.80;99.90;;;;;;5103755;28;20119;-69
2023/01/15 12:08:41;;;;;;;20.67;11.10;;;13.80;99.90;;;;;;5102763;28;20052;-68
2023/01/15 12:11:17;;;;;;;19.80;10.65;;;13.80;99.90;;;;;;5096023;28;20197;-67
2023/01/15 12:13:52;;;;;;;20.75;11.82;;;13.80;99.90;;;;;;5096051;28;20024;-69
2023/01/15 12:16:19;;;;;;;22.35;12.50;;;;;;;;;;5096781;28;20020;-68
2023/01/15 12:18:45;;;;;;;31.10;10.57;;;;;;;;;;5095954;28;20124;-66
2023/01/15 12:21:42;;;;;;;13.10;7.32;;;14.60;99.90;;;;;;5097441;28;20037;-69
2023/01/15 12:24:09;;;;;;;14.43;6.93;;;;;;;;;;5094062;28;20081;-67
2023/01/15 12:27:01;;;;;;;16.75;6.45;;;14.30;99.90;;;;;;5096408;28;20500;-67
2023/01/15 12:29:44;;;;;;;11.98;5.10;;;14.70;99.90;;;;;;5094603;28;20500;-66
2023/01/15 12:32:18;;;;;;;13.65;3.45;;;14.90;99.90;;;;;;5096790;28;20073;-68
2023/01/15 12:35:18;;;;;;;8.43;1.98;;;15.30;99.90;;;;;;5096935;28;20417;-66
2023/01/15 12:37:49;;;;;;;5.75;1.63;;;15.80;99.90;;;;;;5097649;28;20031;-68
2023/01/15 12:40:19;;;;;;;6.68;2.17;;;15.50;99.90;;;;;;5100080;28;20023;-67
2023/01/15 12:45:51;;;;;;;12.73;2.40;;;15.70;99.90;;;;;;5101411;28;20031;-67
2023/01/15 12:48:42;;;;;;;14.82;1.90;;;15.80;94.60;;;;;;5101526;28;20020;-66
2023/01/15 12:51:17;;;;;;;11.15;2.00;;;15.20;93.80;;;;;;5102072;28;20016;-67
2023/01/15 12:53:54;;;;;;;12.95;2.00;;;15.90;92.10;;;;;;5099128;28;21440;-69
2023/01/15 12:56:35;;;;;;;11.05;1.98;;;15.80;91.40;;;;;;5093288;28;20023;-67
2023/01/15 12:59:40;;;;;;;14.63;2.17;;;16.10;90.60;;;;;;5097865;28;20027;-67
2023/01/15 13:02:28;;;;;;;20.35;2.20;;;16.10;89.90;;;;;;5105349;28;20079;-66
2023/01/15 13:05:41;;;;;;;16.63;2.22;;;17.10;89.40;;;;;;5097579;28;20049;-67
2023/01/15 13:08:19;;;;;;;14.23;2.40;;;16.20;88.50;;;;;;5018597;28;20503;-69
2023/01/15 13:10:45;;;;;;;18.25;2.40;;;;;;;;;;5007535;28;20026;-65
2023/01/15 13:13:16;;;;;;;10.15;1.90;;;;;;;;;;5016046;28;20501;-66
2023/01/15 13:16:07;;;;;;;9.15;1.70;;;16.60;90.00;;;;;;5016881;28;20565;-66
2023/01/15 13:18:57;;;;;;;9.70;2.80;;;16.30;95.20;;;;;;5020773;28;20450;-67
2023/01/15 13:21:24;;;;;;;10.35;1.98;;;;;;;;;;5015131;28;20034;-70
2023/01/15 13:24:00;;;;;;;11.38;2.33;;;16.40;92.90;;;;;;5023510;28;20095;-66
2023/01/15 13:26:45;;;;;;;6.38;1.70;;;;;;;;;;5017134;28;20434;-68
2023/01/15 13:29:27;;;;;;;18.02;2.30;;;;;;;;;;5024570;28;20029;-68
2023/01/15 13:32:05;;;;;;;9.98;2.75;;;16.20;89.00;;;;;;5021874;28;20036;-67
2023/01/15 13:34:38;;;;;;;12.32;2.30;;;;;;;;;;5016156;28;20152;-69
2023/01/15 13:37:11;;;;;;;12.55;2.40;;;;;;;;;;5017283;28;20029;-66
2023/01/15 13:39:42;;;;;;;15.80;2.70;;;16.20;92.50;;;;;;5078086;28;20048;-68
2023/01/15 13:42:35;;;;;;;10.25;2.25;;;16.20;92.10;;;;;;5093153;28;20028;-66
2023/01/15 13:45:33;;;;;;;18.17;2.40;;;16.40;90.80;;;;;;5098541;28;20474;-65
2023/01/15 13:48:28;;;;;;;12.40;2.20;;;16.40;90.00;;;;;;5095061;28;20040;-64
2023/01/15 13:50:59;;;;;;;9.32;2.13;;;;;;;;;;5095221;28;20092;-67
2023/01/15 13:53:28;;;;;;;9.40;2.20;;;;;;;;;;5100970;28;20056;-68
2023/01/15 13:56:04;;;;;;;6.30;2.00;;;16.50;90.70;;;;;;5096233;28;20016;-64
2023/01/15 23:03:37;;;;;;;18.35;3.63;;;19.90;95.70;;;;;;5116095;27;20463;-63
2023/01/15 23:06:05;;;;;;;14.07;4.50;;;19.50;69.60;;;;;;5116205;28;20035;-64
2023/01/15 23:08:34;;;;;;;15.38;3.83;;;19.50;70.20;;;;;;5120353;27;20441;-63
2023/01/15 23:11:18;;;;;;;12.68;3.97;;;19.50;70.90;;;;;;5116470;28;20074;-63
2023/01/15 23:13:44;;;;;;;15.48;3.75;;;19.50;71.00;;;;;;5134354;27;20561;-63
2023/01/15 23:16:11;;;;;;;14.02;3.35;;;19.50;70.60;;;;;;5113590;28;20110;-63
2023/01/15 23:18:37;;;;;;;10.30;3.00;;;19.40;71.30;;;;;;5118657;28;20499;-65
2023/01/15 23:21:06;;;;;;;9.90;3.10;;;19.10;90.90;;;;;;5119025;27;20073;-63
2023/01/15 23:23:33;;;;;;;10.07;6.28;;;19.50;71.40;;;;;;5116779;27;20495;-65